Latest Weather Observations for Alva Beach

IDQ60801

Issued at 2:35 pm EST Thursday 24 April 2014 (issued every 30 minutes, with the page automatically refreshed every 10 minutes)

About weather observations | Map of weather stations | Latest weather observations for QLD | Other Formats
Station Details ID: 033295 Name: ALVA BEACH Lat: -19.46 Lon: 147.48 Height: 7.5 m
Data from the previous 72 hours. | See also: Recent months at Alva Beach
Date/Time
EST
Temp
°C
App
Temp
°C
Dew
Point
Rel
Hum
%
Delta-T
°C
Wind Press
QNH
hPa
Press
MSL
hPa
Rain
since 9 am
mm
Dir
 
Spd
km/h
Gust
km/h
Spd
kts
Gust
kts
24/02:30pm 25.7 27.4 20.9 75 3.2 ESE 13 24 7 13 1011.0 - 0.2
24/02:00pm 26.4 28.4 21.6 75 3.2 ESE 13 20 7 11 1011.1 - 0.2
24/01:30pm 26.2 27.3 21.2 74 3.3 ESE 17 26 9 14 1011.5 - 0.2
24/01:00pm 26.6 27.8 21.4 73 3.5 ESE 17 32 9 17 1011.8 - 0.2
24/12:30pm 25.2 24.9 19.6 71 3.6 ESE 20 33 11 18 1012.3 - 0.2
24/12:00pm 25.7 25.7 20.9 75 3.2 ESE 22 32 12 17 1012.5 1012.5 0.2
24/11:30am 25.8 25.3 20.8 74 3.3 ESE 24 33 13 18 1012.9 - 0.2
24/11:00am 26.3 26.1 21.3 74 3.3 ESE 24 33 13 18 1013.2 - 0.2
24/09:30am 25.9 26.3 20.9 74 3.3 ESE 20 30 11 16 1013.9 - 0.0
24/09:00am 25.3 23.8 20.3 74 3.3 E 28 43 15 23 1013.6 1013.6 0.6
24/08:30am 25.2 23.9 20.7 76 2.9 E 28 37 15 20 1013.5 - 0.6
24/08:00am 24.4 26.1 21.7 85 1.8 ESE 15 28 8 15 1013.2 - 0.6
24/07:30am 23.9 24.5 21.0 84 1.9 ESE 19 32 10 17 1013.0 - 0.6
24/07:00am 23.9 25.2 21.6 87 1.5 SE 17 28 9 15 1012.7 - 0.6
24/06:30am 23.7 25.3 21.4 87 1.5 ESE 15 24 8 13 1012.4 - 0.4
24/06:00am 23.5 24.2 21.2 87 1.5 SE 19 28 10 15 1012.2 1012.2 0.4
24/05:30am 23.6 24.0 20.7 84 1.9 SE 19 33 10 18 1011.8 - 0.4
24/05:00am 23.5 24.7 20.6 84 1.9 SE 15 24 8 13 1011.9 - 0.4
24/04:30am 23.5 23.6 20.4 83 2.0 SE 20 35 11 19 1011.8 - 0.4
24/04:00am 23.6 23.6 20.9 85 1.8 ESE 22 35 12 19 1011.7 - 0.4
24/03:30am 23.5 23.6 21.2 87 1.5 SE 22 33 12 18 1011.7 - 0.4
24/03:00am 21.9 24.3 20.0 89 1.2 S 7 11 4 6 1011.9 1011.9 0.4
24/02:30am 21.9 24.4 20.2 90 1.1 S 7 11 4 6 1012.0 - 0.4
24/02:00am 21.5 23.9 20.0 91 1.0 S 7 13 4 7 1012.1 - 0.4
24/01:30am 21.4 23.4 19.9 91 1.0 SSW 9 15 5 8 1012.6 - 0.4
24/01:00am 21.4 23.4 19.9 91 1.0 S 9 13 5 7 1012.9 - 0.4
24/12:30am 21.5 23.4 19.8 90 1.1 S 9 13 5 7 1013.5 - 0.4
24/12:00am 21.6 23.9 19.9 90 1.1 S 7 11 4 6 1013.9 1013.9 0.4
 
Date/Time
EST
Temp
°C
App
Temp
°C
Dew
Point
Rel
Hum
%
Delta-T
°C
Wind Press
QNH
hPa
Press
MSL
hPa
Rain
since 9 am
mm
Dir
 
Spd
km/h
Gust
km/h
Spd
kts
Gust
kts
23/11:30pm 21.7 23.7 20.0 90 1.1 SSW 9 13 5 7 1013.9 - 0.4
23/11:00pm 22.0 24.4 20.1 89 1.2 SSW 7 11 4 6 1014.1 - 0.4
23/10:30pm 22.2 24.6 20.1 88 1.4 SSW 7 11 4 6 1014.1 - 0.4
23/10:00pm 22.3 24.4 20.2 88 1.4 S 9 13 5 7 1014.2 - 0.4
23/09:30pm 22.1 24.1 20.0 88 1.3 S 9 17 5 9 1014.2 - 0.4
23/09:00pm 22.1 23.9 20.4 90 1.1 S 11 19 6 10 1014.3 1014.3 0.4
23/08:30pm 22.1 23.9 20.4 90 1.1 S 11 17 6 9 1014.2 - 0.4
23/08:00pm 22.2 24.1 20.5 90 1.1 S 11 17 6 9 1014.0 - 0.4
23/07:30pm 22.4 23.7 20.1 87 1.5 S 13 20 7 11 1013.7 - 0.4
23/07:00pm 22.8 24.0 19.8 83 1.9 SSW 13 20 7 11 1013.3 - 0.2
23/06:30pm 24.2 24.7 19.3 74 3.1 SSW 15 26 8 14 1012.6 - 0.0
23/06:00pm 25.4 26.9 21.3 78 2.7 ESE 15 24 8 13 1012.1 1012.1 0.0
23/05:30pm 25.7 27.9 21.1 76 3.0 ESE 11 20 6 11 1011.9 - 0.0
23/05:00pm 26.0 28.6 21.2 75 3.2 ESE 9 13 5 7 1011.3 - 0.0
23/04:30pm 26.0 27.6 20.8 73 3.4 SE 13 17 7 9 1010.7 - 0.0
23/04:00pm 26.8 28.3 20.6 69 4.1 ESE 13 24 7 13 1010.8 - 0.0
23/03:30pm 27.4 28.9 20.5 66 4.5 ESE 13 20 7 11 1011.2 - 0.0
23/03:00pm 27.8 28.5 20.4 64 4.9 ESE 17 30 9 16 1011.4 1011.4 0.0
23/02:30pm 28.1 28.9 19.9 61 5.4 ESE 15 26 8 14 1011.6 - 0.0
23/02:00pm 28.3 29.2 20.1 61 5.4 SE 15 24 8 13 1011.8 - 0.0
23/01:30pm 27.5 27.9 19.0 59 5.5 SE 15 26 8 14 1012.2 - 0.0
23/01:00pm 27.3 27.7 19.1 61 5.3 SE 15 24 8 13 1012.7 - 0.0
23/12:30pm 27.5 28.3 19.8 63 5.0 SE 15 24 8 13 1013.2 - 0.0
23/12:00pm 27.6 28.3 19.7 62 5.1 SE 15 26 8 14 1013.6 1013.6 0.0
23/11:30am 27.5 27.9 19.0 59 5.5 SE 15 24 8 13 1014.1 - 0.0
23/11:00am 26.6 26.9 19.5 65 4.6 SE 17 30 9 16 1014.5 - 0.0
23/10:30am 26.0 26.7 18.9 65 4.5 SE 13 22 7 12 1015.0 - 0.0
23/10:00am 25.8 26.3 19.2 67 4.2 SE 15 24 8 13 1015.1 - 0.0
23/09:30am 24.9 26.8 19.7 73 3.4 SSE 9 15 5 8 1015.0 - 0.0
23/09:00am 23.6 25.0 19.5 78 2.6 S 11 19 6 10 1014.8 1014.8 0.8
23/08:30am 23.2 24.7 19.8 81 2.2 S 11 19 6 10 1014.9 - 0.8
23/08:00am 22.2 24.0 19.6 85 1.7 S 9 17 5 9 1014.5 - 0.8
23/07:30am 21.4 23.3 19.7 90 1.1 SSW 9 13 5 7 1014.4 - 0.8
23/07:00am 20.2 22.1 19.0 93 0.8 SSW 7 13 4 7 1014.2 - 0.8
23/06:30am 19.9 21.7 18.7 93 0.7 SSW 7 11 4 6 1013.7 - 0.8
23/06:00am 19.8 21.5 18.5 92 0.8 S 7 9 4 5 1013.2 1013.2 0.6
23/05:30am 20.1 21.8 18.6 91 0.9 SSW 7 11 4 6 1013.3 - 0.6
23/05:00am 20.2 22.0 18.7 91 0.9 S 7 13 4 7 1013.5 - 0.6
23/04:30am 20.1 21.5 18.6 91 0.9 SSW 9 13 5 7 1013.6 - 0.6
23/04:00am 20.1 21.5 18.6 91 0.9 S 9 15 5 8 1013.5 - 0.6
23/03:30am 20.2 21.6 18.7 91 0.9 SSW 9 15 5 8 1013.7 - 0.6
23/03:00am 20.5 22.0 19.0 91 0.9 SSW 9 13 5 7 1013.6 1013.6 0.6
23/02:30am 21.0 23.1 19.3 90 1.1 S 7 11 4 6 1013.7 - 0.6
23/02:00am 21.1 22.8 19.4 90 1.1 SSE 9 15 5 8 1014.0 - 0.6
23/01:30am 21.1 22.6 19.0 88 1.3 S 9 13 5 7 1014.4 - 0.4
23/01:00am 21.0 22.7 18.6 86 1.5 SSE 7 15 4 8 1014.6 - 0.4
23/12:30am 21.4 23.0 18.2 82 2.0 S 7 11 4 6 1015.0 - 0.4
23/12:00am 23.0 24.2 18.3 75 2.9 SSE 9 24 5 13 1015.4 1015.4 0.2
 
Date/Time
EST
Temp
°C
App
Temp
°C
Dew
Point
Rel
Hum
%
Delta-T
°C
Wind Press
QNH
hPa
Press
MSL
hPa
Rain
since 9 am
mm
Dir
 
Spd
km/h
Gust
km/h
Spd
kts
Gust
kts
22/11:30pm 23.2 23.2 18.1 73 3.2 SE 15 24 8 13 1015.5 - 0.2
22/11:00pm 23.4 22.2 17.6 70 3.6 SE 20 30 11 16 1015.7 - 0.2
22/10:30pm 23.1 23.7 17.6 71 3.4 SE 11 17 6 9 1015.8 - 0.2
22/10:00pm 23.1 24.2 18.0 73 3.2 SE 9 19 5 10 1015.9 - 0.2
22/09:30pm 23.2 23.0 18.5 75 3.0 SE 17 24 9 13 1015.7 - 0.2
22/09:00pm 23.4 22.8 18.5 74 3.1 SE 19 28 10 15 1015.9 1015.9 0.2
22/08:30pm 23.5 23.3 18.4 73 3.2 SE 17 24 9 13 1015.9 - 0.2
22/08:00pm 23.3 23.9 18.6 75 3.0 ESE 13 24 7 13 1015.8 - 0.2
22/07:30pm 23.4 23.7 18.7 75 3.0 ESE 15 24 8 13 1015.6 - 0.2
22/07:00pm 23.2 23.7 18.3 74 3.1 ESE 13 20 7 11 1015.4 - 0.2
22/06:30pm 23.0 23.2 18.5 76 2.8 ESE 15 26 8 14 1015.3 - 0.2
22/06:00pm 22.9 23.5 18.7 77 2.6 ESE 13 22 7 12 1015.3 1015.3 0.2
22/05:30pm 23.3 24.0 18.8 76 2.8 ESE 13 22 7 12 1015.2 - 0.2
22/05:00pm 23.3 24.0 18.8 76 2.8 ESE 13 20 7 11 1014.9 - 0.2
22/04:30pm 24.0 24.3 18.0 69 3.8 ESE 13 20 7 11 1014.6 - 0.0
22/04:00pm 24.4 24.5 17.4 65 4.4 ESE 13 24 7 13 1014.5 - 0.0
22/03:30pm 24.9 25.0 17.4 63 4.7 ESE 13 22 7 12 1014.4 - 0.0
22/03:00pm 25.1 24.6 17.0 60 5.0 ESE 15 26 8 14 1014.6 1014.6 0.0
22/02:30pm 25.1 24.6 16.8 60 5.1 ESE 15 22 8 12 1014.8 - 0.0
22/02:00pm 24.4 24.2 17.6 66 4.2 ESE 15 26 8 14 1015.0 - 0.0
22/01:30pm 24.5 24.0 17.7 66 4.2 ESE 17 28 9 15 1015.3 - 0.0
22/01:00pm 24.3 23.4 16.8 63 4.6 E 17 24 9 13 1015.5 - 0.0
22/12:30pm 24.8 24.3 16.8 61 4.9 E 15 28 8 15 1015.9 - 0.0
22/12:00pm 24.7 24.3 17.2 63 4.6 ESE 15 26 8 14 1016.1 1016.1 0.0
22/11:30am 24.7 23.6 16.4 60 5.1 ESE 17 26 9 14 1016.5 - 0.0
22/11:00am 24.9 24.4 16.9 61 4.9 ESE 15 24 8 13 1016.8 - 0.0
22/10:30am 25.2 24.8 17.1 60 5.0 ESE 15 24 8 13 1017.2 - 0.0
22/10:00am 24.8 23.5 16.8 61 4.9 SE 19 30 10 16 1017.5 - 0.0
22/09:30am 24.7 23.4 17.2 63 4.7 E 20 28 11 15 1017.6 - 0.0
22/09:00am 24.2 22.2 16.5 62 4.7 E 22 28 12 15 1017.4 1017.4 0.0
22/08:30am 24.3 22.4 16.6 62 4.7 E 22 30 12 16 1017.2 - 0.0
22/08:00am 21.4 21.8 16.4 73 3.0 S 9 13 5 7 1017.4 - 0.0
22/07:30am 21.0 20.9 16.0 73 3.0 SSW 11 17 6 9 1017.2 - 0.0
22/07:00am 21.9 21.9 15.3 66 3.9 SSE 9 17 5 9 1016.8 - 0.0
22/06:30am 23.6 22.0 15.9 62 4.7 E 19 30 10 16 1016.4 - 0.0
22/06:00am 23.7 22.0 16.2 63 4.6 E 20 32 11 17 1015.9 1015.9 0.0
22/05:30am 23.9 21.8 16.2 62 4.7 E 22 32 12 17 1015.5 - 0.0
22/05:00am 23.7 21.5 16.0 62 4.7 E 22 30 12 16 1015.6 - 0.0
22/04:30am 23.9 22.1 16.9 65 4.3 E 22 30 12 16 1015.3 - 0.0
22/04:00am 23.9 21.6 16.7 64 4.4 E 24 32 13 17 1015.2 - 0.0
22/03:30am 23.7 22.5 17.0 66 4.1 E 19 28 10 15 1015.6 - 0.0
22/03:00am 23.7 21.6 16.2 63 4.6 E 22 32 12 17 1015.7 1015.7 0.0
22/02:30am 23.8 21.9 16.6 64 4.4 E 22 32 12 17 1015.8 - 0.0
22/02:00am 23.7 21.3 16.5 64 4.4 E 24 35 13 19 1015.9 - 0.0
22/01:30am 23.7 21.1 16.0 62 4.7 E 24 33 13 18 1016.0 - 0.0
22/01:00am 23.7 21.0 15.5 60 4.9 E 24 32 13 17 1016.5 - 0.0
22/12:30am 23.5 20.9 15.0 59 5.1 E 22 33 12 18 1016.5 - 0.0
22/12:00am 23.5 21.2 15.8 62 4.6 E 22 32 12 17 1016.9 1016.9 0.0
 
Date/Time
EST
Temp
°C
App
Temp
°C
Dew
Point
Rel
Hum
%
Delta-T
°C
Wind Press
QNH
hPa
Press
MSL
hPa
Rain
since 9 am
mm
Dir
 
Spd
km/h
Gust
km/h
Spd
kts
Gust
kts
21/11:30pm 23.5 21.2 15.8 62 4.6 E 22 32 12 17 1016.8 - 0.0
21/11:00pm 23.4 20.5 15.2 60 4.9 E 24 32 13 17 1017.0 - 0.0
21/10:30pm 23.8 20.1 15.0 57 5.3 E 28 39 15 21 1017.1 - 0.0
21/10:00pm 23.8 20.3 15.6 60 4.9 E 28 35 15 19 1017.0 - 0.0
21/09:30pm 23.9 20.5 15.7 60 5.0 E 28 39 15 21 1017.1 - 0.0
21/09:00pm 24.0 20.7 16.0 61 4.8 E 28 39 15 21 1017.2 1017.2 0.0
21/08:30pm 24.0 20.4 16.3 62 4.7 E 30 39 16 21 1017.2 - 0.0
21/08:00pm 24.1 20.7 15.9 60 5.0 E 28 35 15 19 1017.1 - 0.0
21/07:30pm 24.2 21.2 16.7 63 4.6 E 28 39 15 21 1016.9 - 0.0
21/07:00pm 24.0 21.2 16.3 62 4.7 E 26 35 14 19 1016.4 - 0.0
21/06:30pm 24.1 21.0 15.6 59 5.1 E 26 35 14 19 1016.2 - 0.0
21/06:00pm 24.2 21.0 15.4 58 5.3 E 26 35 14 19 1016.0 1016.0 0.0
21/05:30pm 24.2 21.1 15.7 59 5.1 E 26 39 14 21 1015.7 - 0.0
21/05:00pm 24.5 22.1 16.5 61 4.9 E 24 33 13 18 1015.5 - 0.0
21/04:30pm 24.8 21.6 15.4 56 5.7 E 26 35 14 19 1015.1 - 0.0
21/04:00pm 25.1 22.3 15.4 55 5.9 E 24 35 13 19 1014.8 - 0.0
21/03:30pm 25.0 21.2 14.8 53 6.1 E 28 39 15 21 1014.5 - 0.0
21/03:00pm 25.1 21.1 15.1 53 6.0 E 30 39 16 21 1014.7 1014.7 0.0

Other Formats:

Comma delimited format used in spreadsheet applications
http://www.bom.gov.au/fwo/IDQ60801/IDQ60801.95296.axf

JavaScript Object Notation format (JSON) in row-major order
http://www.bom.gov.au/fwo/IDQ60801/IDQ60801.95296.json